Time,TemperatureF,DewpointF,PressureIn,WindDirection,WindDirectionDegrees,WindSpeedMPH,WindSpeedGustMPH,Humidity,HourlyPrecipIn,Conditions,Clouds,dailyrainin,SoftwareType,DateUTC
2013-03-21 00:00:00,8.1,-1.2,30.09,North,0,0.0,0.0,65,0.00,,,0.00,WUHU21636XXSP,2013-03-21 05:00:00,
2013-03-21 00:05:00,7.9,-1.4,30.09,North,0,0.0,0.0,65,0.00,,,0.00,WUHU21636XXSP,2013-03-21 05:05:00,
2013-03-21 00:10:00,7.7,-1.9,30.09,North,0,0.0,0.0,64,0.00,,,0.00,WUHU21636XXSP,2013-03-21 05:10:00,
2013-03-21 00:15:00,7.2,-2.0,30.08,North,0,0.0,0.0,65,0.00,,,0.00,WUHU21636XXSP,2013-03-21 05:15:00,
2013-03-21 00:20:00,7.2,-2.0,30.08,North,0,0.0,0.0,65,0.00,,,0.00,WUHU21636XXSP,2013-03-21 05:20:00,
2013-03-21 00:25:00,7.2,-2.0,30.08,North,0,0.0,0.0,65,0.00,,,0.00,WUHU21636XXSP,2013-03-21 05:25:00,
2013-03-21 00:30:00,7.2,-2.0,30.08,North,0,0.0,0.0,65,0.00,,,0.00,WUHU21636XXSP,2013-03-21 05:30:00,
2013-03-21 00:35:00,7.1,-1.8,30.09,North,0,0.0,0.0,66,0.00,,,0.00,WUHU21636XXSP,2013-03-21 05:35:00,
2013-03-21 00:40:00,7.1,-1.8,30.09,North,0,0.0,0.0,66,0.00,,,0.00,WUHU21636XXSP,2013-03-21 05:40:00,
2013-03-21 00:45:00,6.9,-2.0,30.08,North,0,0.0,0.0,66,0.00,,,0.00,WUHU21636XXSP,2013-03-21 05:45:00,
2013-03-21 00:50:00,6.7,-2.2,30.09,North,0,0.0,0.0,66,0.00,,,0.00,WUHU21636XXSP,2013-03-21 05:50:00,
2013-03-21 00:55:00,6.5,-2.4,30.09,North,0,0.0,0.0,66,0.00,,,0.00,WUHU21636XXSP,2013-03-21 05:55:00,
2013-03-21 01:00:00,6.5,-2.4,30.09,North,0,0.0,0.0,66,0.00,,,0.00,WUHU21636XXSP,2013-03-21 06:00:00,
2013-03-21 01:05:00,6.5,-1.8,30.08,North,0,0.0,0.0,68,0.00,,,0.00,WUHU21636XXSP,2013-03-21 06:05:00,
2013-03-21 01:10:00,6.3,-2.3,30.08,North,0,0.0,0.0,67,0.00,,,0.00,WUHU21636XXSP,2013-03-21 06:10:00,
2013-03-21 01:15:00,6.3,-2.0,30.08,North,0,0.0,0.0,68,0.00,,,0.00,WUHU21636XXSP,2013-03-21 06:15:00,
2013-03-21 01:20:00,6.2,-2.1,30.08,North,0,0.0,0.0,68,0.00,,,0.00,WUHU21636XXSP,2013-03-21 06:20:00,
2013-03-21 01:25:00,6.2,-2.4,30.09,North,0,0.0,0.0,67,0.00,,,0.00,WUHU21636XXSP,2013-03-21 06:25:00,
2013-03-21 01:30:00,6.0,-2.3,30.08,North,0,0.0,0.0,68,0.00,,,0.00,WUHU21636XXSP,2013-03-21 06:30:00,
2013-03-21 01:35:00,6.0,-2.3,30.08,North,0,0.0,0.0,68,0.00,,,0.00,WUHU21636XXSP,2013-03-21 06:35:00,
2013-03-21 01:40:00,6.0,-2.3,30.08,North,0,0.0,0.0,68,0.00,,,0.00,WUHU21636XXSP,2013-03-21 06:40:00,
2013-03-21 01:46:00,5.6,-2.7,30.08,North,0,0.0,0.0,68,0.00,,,0.00,WUHU21636XXSP,2013-03-21 06:46:00,
2013-03-21 01:51:00,5.6,-2.7,30.09,North,0,0.0,0.0,68,0.00,,,0.00,WUHU21636XXSP,2013-03-21 06:51:00,
2013-03-21 01:56:00,5.6,-2.7,30.09,North,0,0.0,0.0,68,0.00,,,0.00,WUHU21636XXSP,2013-03-21 06:56:00,
2013-03-21 02:00:00,5.4,-2.9,30.09,North,0,0.0,0.0,68,0.00,,,0.00,WUHU21636XXSP,2013-03-21 07:00:00,
2013-03-21 02:05:00,5.4,-2.9,30.08,North,0,0.0,0.0,68,0.00,,,0.00,WUHU21636XXSP,2013-03-21 07:05:00,
2013-03-21 02:11:00,5.4,-2.6,30.08,North,0,0.0,0.0,69,0.00,,,0.00,WUHU21636XXSP,2013-03-21 07:11:00,
2013-03-21 02:16:00,5.4,-2.6,30.08,North,0,0.0,0.0,69,0.00,,,0.00,WUHU21636XXSP,2013-03-21 07:16:00,
2013-03-21 02:21:00,5.3,-2.7,30.09,North,0,0.0,0.0,69,0.00,,,0.00,WUHU21636XXSP,2013-03-21 07:21:00,
2013-03-21 02:26:00,5.0,-2.9,30.09,North,0,0.0,0.0,69,0.00,,,0.00,WUHU21636XXSP,2013-03-21 07:26:00,
2013-03-21 02:31:00,5.0,-2.9,30.08,North,0,0.0,0.0,69,0.00,,,0.00,WUHU21636XXSP,2013-03-21 07:31:00,
2013-03-21 02:35:00,5.0,-2.9,30.08,North,0,0.0,0.0,69,0.00,,,0.00,WUHU21636XXSP,2013-03-21 07:35:00,
2013-03-21 02:40:00,4.8,-3.1,30.08,North,0,0.0,0.0,69,0.00,,,0.00,WUHU21636XXSP,2013-03-21 07:40:00,
2013-03-21 02:45:00,4.8,-3.1,30.08,North,0,0.0,0.0,69,0.00,,,0.00,WUHU21636XXSP,2013-03-21 07:45:00,
2013-03-21 02:50:00,4.8,-3.1,30.08,North,0,0.0,0.0,69,0.00,,,0.00,WUHU21636XXSP,2013-03-21 07:50:00,
2013-03-21 02:55:00,4.6,-3.3,30.07,North,0,0.0,0.0,69,0.00,,,0.00,WUHU21636XXSP,2013-03-21 07:55:00,
2013-03-21 03:00:00,4.6,-3.3,30.07,North,0,0.0,0.0,69,0.00,,,0.00,WUHU21636XXSP,2013-03-21 08:00:00,
2013-03-21 03:05:00,4.4,-3.5,30.07,North,0,0.0,0.0,69,0.00,,,0.00,WUHU21636XXSP,2013-03-21 08:05:00,
2013-03-21 03:10:00,4.4,-3.5,30.07,North,0,0.0,0.0,69,0.00,,,0.00,WUHU21636XXSP,2013-03-21 08:10:00,
2013-03-21 03:15:00,4.4,-3.5,30.07,North,0,0.0,0.0,69,0.00,,,0.00,WUHU21636XXSP,2013-03-21 08:15:00,
2013-03-21 03:20:00,4.4,-3.5,30.07,North,0,0.0,0.0,69,0.00,,,0.00,WUHU21636XXSP,2013-03-21 08:20:00,
2013-03-21 03:25:00,4.1,-3.8,30.07,North,0,0.0,0.0,69,0.00,,,0.00,WUHU21636XXSP,2013-03-21 08:25:00,
2013-03-21 03:30:00,4.1,-3.5,30.07,North,0,0.0,0.0,70,0.00,,,0.00,WUHU21636XXSP,2013-03-21 08:30:00,
2013-03-21 03:35:00,4.1,-3.8,30.07,North,0,0.0,0.0,69,0.00,,,0.00,WUHU21636XXSP,2013-03-21 08:35:00,
2013-03-21 03:40:00,3.7,-3.9,30.07,North,0,0.0,0.0,70,0.00,,,0.00,WUHU21636XXSP,2013-03-21 08:40:00,
2013-03-21 03:45:00,3.7,-3.9,30.07,North,0,0.0,0.0,70,0.00,,,0.00,WUHU21636XXSP,2013-03-21 08:45:00,
2013-03-21 03:50:00,3.7,-3.9,30.06,North,0,0.0,0.0,70,0.00,,,0.00,WUHU21636XXSP,2013-03-21 08:50:00,
2013-03-21 03:55:00,3.7,-3.9,30.07,North,0,0.0,0.0,70,0.00,,,0.00,WUHU21636XXSP,2013-03-21 08:55:00,
2013-03-21 04:00:00,3.5,-4.1,30.07,North,0,0.0,0.0,70,0.00,,,0.00,WUHU21636XXSP,2013-03-21 09:00:00,
2013-03-21 04:05:00,3.5,-4.1,30.06,North,0,0.0,0.0,70,0.00,,,0.00,WUHU21636XXSP,2013-03-21 09:05:00,
2013-03-21 04:10:00,3.5,-4.1,30.06,North,0,0.0,0.0,70,0.00,,,0.00,WUHU21636XXSP,2013-03-21 09:10:00,
2013-03-21 04:15:00,3.5,-4.1,30.07,North,0,0.0,0.0,70,0.00,,,0.00,WUHU21636XXSP,2013-03-21 09:15:00,
2013-03-21 04:20:00,3.4,-4.2,30.06,North,0,0.0,0.0,70,0.00,,,0.00,WUHU21636XXSP,2013-03-21 09:20:00,
2013-03-21 04:25:00,3.4,-3.9,30.07,North,0,0.0,0.0,71,0.00,,,0.00,WUHU21636XXSP,2013-03-21 09:25:00,
2013-03-21 04:30:00,3.4,-3.9,30.07,North,0,0.0,0.0,71,0.00,,,0.00,WUHU21636XXSP,2013-03-21 09:30:00,
2013-03-21 04:35:00,3.4,-3.9,30.07,North,0,0.0,0.0,71,0.00,,,0.00,WUHU21636XXSP,2013-03-21 09:35:00,
2013-03-21 04:40:00,3.2,-4.1,30.07,North,0,0.0,0.0,71,0.00,,,0.00,WUHU21636XXSP,2013-03-21 09:40:00,
2013-03-21 04:45:00,3.2,-4.1,30.07,North,0,0.0,0.0,71,0.00,,,0.00,WUHU21636XXSP,2013-03-21 09:45:00,
2013-03-21 04:50:00,3.2,-4.1,30.07,North,0,0.0,0.0,71,0.00,,,0.00,WUHU21636XXSP,2013-03-21 09:50:00,
2013-03-21 04:55:00,2.9,-4.3,30.07,North,0,0.0,0.0,71,0.00,,,0.00,WUHU21636XXSP,2013-03-21 09:55:00,
2013-03-21 05:00:00,2.9,-4.3,30.07,North,0,0.0,0.0,71,0.00,,,0.00,WUHU21636XXSP,2013-03-21 10:00:00,
2013-03-21 05:06:00,2.9,-4.3,30.07,North,0,0.0,0.0,71,0.00,,,0.00,WUHU21636XXSP,2013-03-21 10:06:00,
2013-03-21 05:11:00,2.9,-4.3,30.08,North,0,0.0,0.0,71,0.00,,,0.00,WUHU21636XXSP,2013-03-21 10:11:00,
2013-03-21 05:16:00,2.7,-4.5,30.07,North,0,0.0,0.0,71,0.00,,,0.00,WUHU21636XXSP,2013-03-21 10:16:00,
2013-03-21 05:21:00,2.7,-4.5,30.07,North,0,0.0,0.0,71,0.00,,,0.00,WUHU21636XXSP,2013-03-21 10:21:00,
2013-03-21 05:26:00,2.7,-4.2,30.07,North,0,0.0,0.0,72,0.00,,,0.00,WUHU21636XXSP,2013-03-21 10:26:00,
2013-03-21 05:30:00,2.5,-4.4,30.07,North,0,0.0,0.0,72,0.00,,,0.00,WUHU21636XXSP,2013-03-21 10:30:00,
2013-03-21 05:35:00,2.5,-4.7,30.07,North,0,0.0,0.0,71,0.00,,,0.00,WUHU21636XXSP,2013-03-21 10:35:00,
2013-03-21 05:40:00,2.4,-4.8,30.07,North,0,0.0,0.0,71,0.00,,,0.00,WUHU21636XXSP,2013-03-21 10:40:00,
2013-03-21 05:45:00,2.4,-4.8,30.08,North,0,0.0,0.0,71,0.00,,,0.00,WUHU21636XXSP,2013-03-21 10:45:00,
2013-03-21 05:51:00,2.4,-4.8,30.08,North,0,0.0,0.0,71,0.00,,,0.00,WUHU21636XXSP,2013-03-21 10:51:00,
2013-03-21 05:56:00,2.4,-4.5,30.07,North,0,0.0,0.0,72,0.00,,,0.00,WUHU21636XXSP,2013-03-21 10:56:00,
2013-03-21 06:01:00,2.4,-4.8,30.08,North,0,0.0,0.0,71,0.00,,,0.00,WUHU21636XXSP,2013-03-21 11:01:00,
2013-03-21 06:06:00,2.2,-4.7,30.08,North,0,0.0,0.0,72,0.00,,,0.00,WUHU21636XXSP,2013-03-21 11:06:00,
2013-03-21 06:11:00,2.2,-4.7,30.08,North,0,0.0,0.0,72,0.00,,,0.00,WUHU21636XXSP,2013-03-21 11:11:00,
2013-03-21 06:16:00,2.2,-4.7,30.08,North,0,0.0,0.0,72,0.00,,,0.00,WUHU21636XXSP,2013-03-21 11:16:00,
2013-03-21 06:21:00,2.2,-4.7,30.09,North,0,0.0,0.0,72,0.00,,,0.00,WUHU21636XXSP,2013-03-21 11:21:00,
2013-03-21 06:26:00,2.2,-4.7,30.09,North,0,0.0,0.0,72,0.00,,,0.00,WUHU21636XXSP,2013-03-21 11:26:00,
2013-03-21 06:31:00,2.2,-4.4,30.08,North,0,0.0,0.0,73,0.00,,,0.00,WUHU21636XXSP,2013-03-21 11:31:00,
2013-03-21 06:36:00,2.2,-4.7,30.08,North,0,0.0,0.0,72,0.00,,,0.00,WUHU21636XXSP,2013-03-21 11:36:00,
2013-03-21 06:41:00,1.8,-5.1,30.08,North,0,0.0,0.0,72,0.00,,,0.00,WUHU21636XXSP,2013-03-21 11:41:00,
2013-03-21 06:46:00,1.8,-5.1,30.09,North,0,0.0,0.0,72,0.00,,,0.00,WUHU21636XXSP,2013-03-21 11:46:00,
2013-03-21 06:51:00,1.8,-5.1,30.09,North,0,0.0,0.0,72,0.00,,,0.00,WUHU21636XXSP,2013-03-21 11:51:00,
2013-03-21 06:56:00,1.8,-5.1,30.09,North,0,0.0,0.0,72,0.00,,,0.00,WUHU21636XXSP,2013-03-21 11:56:00,
2013-03-21 07:01:00,1.8,-5.1,30.09,North,0,0.0,0.0,72,0.00,,,0.00,WUHU21636XXSP,2013-03-21 12:01:00,
2013-03-21 07:06:00,1.8,-5.1,30.09,North,0,0.0,0.0,72,0.00,,,0.00,WUHU21636XXSP,2013-03-21 12:06:00,
2013-03-21 07:11:00,1.8,-5.1,30.09,North,0,0.0,0.0,72,0.00,,,0.00,WUHU21636XXSP,2013-03-21 12:11:00,
2013-03-21 07:17:00,1.6,-5.3,30.09,North,0,0.0,0.0,72,0.00,,,0.00,WUHU21636XXSP,2013-03-21 12:17:00,
2013-03-21 07:22:00,1.6,-5.3,30.09,North,0,0.0,0.0,72,0.00,,,0.00,WUHU21636XXSP,2013-03-21 12:22:00,
2013-03-21 07:27:00,1.6,-5.6,30.09,North,0,0.0,0.0,71,0.00,,,0.00,WUHU21636XXSP,2013-03-21 12:27:00,
2013-03-21 07:32:00,1.8,-5.1,30.09,North,0,0.0,0.0,72,0.00,,,0.00,WUHU21636XXSP,2013-03-21 12:32:00,
2013-03-21 07:37:00,1.8,-5.4,30.09,North,0,0.0,0.0,71,0.00,,,0.00,WUHU21636XXSP,2013-03-21 12:37:00,
2013-03-21 07:42:00,1.8,-5.1,30.09,North,0,0.0,0.0,72,0.00,,,0.00,WUHU21636XXSP,2013-03-21 12:42:00,
2013-03-21 07:47:00,1.8,-5.1,30.09,North,0,0.0,0.0,72,0.00,,,0.00,WUHU21636XXSP,2013-03-21 12:47:00,
2013-03-21 07:52:00,2.2,-5.0,30.09,North,0,0.0,0.0,71,0.00,,,0.00,WUHU21636XXSP,2013-03-21 12:52:00,
2013-03-21 07:57:00,2.5,-4.4,30.09,North,0,0.0,0.0,72,0.00,,,0.00,WUHU21636XXSP,2013-03-21 12:57:00,
2013-03-21 08:02:00,2.7,-4.5,30.09,North,0,0.0,0.0,71,0.00,,,0.00,WUHU21636XXSP,2013-03-21 13:02:00,
2013-03-21 08:07:00,2.9,-4.0,30.09,North,0,0.0,0.0,72,0.00,,,0.00,WUHU21636XXSP,2013-03-21 13:07:00,
2013-03-21 08:12:00,3.5,-3.8,30.09,North,0,0.0,0.0,71,0.00,,,0.00,WUHU21636XXSP,2013-03-21 13:12:00,
2013-03-21 08:17:00,3.5,-3.8,30.09,North,0,0.0,0.0,71,0.00,,,0.00,WUHU21636XXSP,2013-03-21 13:17:00,
2013-03-21 08:22:00,4.1,-3.2,30.09,North,0,0.0,0.0,71,0.00,,,0.00,WUHU21636XXSP,2013-03-21 13:22:00,
2013-03-21 08:27:00,4.6,-2.7,30.08,North,0,0.0,0.0,71,0.00,,,0.00,WUHU21636XXSP,2013-03-21 13:27:00,
2013-03-21 08:32:00,5.0,-2.3,30.08,North,0,0.0,0.0,71,0.00,,,0.00,WUHU21636XXSP,2013-03-21 13:32:00,
2013-03-21 08:37:00,5.6,-1.8,30.08,North,0,0.0,0.0,71,0.00,,,0.00,WUHU21636XXSP,2013-03-21 13:37:00,
2013-03-21 08:42:00,6.2,-1.2,30.09,North,0,0.0,0.0,71,0.00,,,0.00,WUHU21636XXSP,2013-03-21 13:42:00,
2013-03-21 08:47:00,6.9,-0.4,30.08,North,0,0.0,0.0,71,0.00,,,0.00,WUHU21636XXSP,2013-03-21 13:47:00,
2013-03-21 08:52:00,7.7,0.3,30.08,North,0,0.0,0.0,71,0.00,,,0.00,WUHU21636XXSP,2013-03-21 13:52:00,
2013-03-21 08:57:00,8.4,0.7,30.08,North,0,0.0,0.0,70,0.00,,,0.00,WUHU21636XXSP,2013-03-21 13:57:00,
2013-03-21 09:02:00,9.0,1.3,30.08,SE,135,0.0,0.0,70,0.00,,,0.00,WUHU21636XXSP,2013-03-21 14:02:00,
2013-03-21 09:07:00,9.8,1.7,30.09,SSW,202,0.0,0.0,69,0.00,,,0.00,WUHU21636XXSP,2013-03-21 14:07:00,
2013-03-21 09:12:00,10.9,2.5,30.08,SSW,202,0.0,0.0,68,0.00,,,0.00,WUHU21636XXSP,2013-03-21 14:12:00,
2013-03-21 09:17:00,11.7,2.9,30.08,South,180,0.0,0.0,67,0.00,,,0.00,WUHU21636XXSP,2013-03-21 14:17:00,
2013-03-21 09:22:00,12.2,3.4,30.08,South,180,0.0,0.0,67,0.00,,,0.00,WUHU21636XXSP,2013-03-21 14:22:00,
2013-03-21 09:27:00,13.5,4.0,30.08,SSW,202,0.0,0.0,65,0.00,,,0.00,WUHU21636XXSP,2013-03-21 14:27:00,
2013-03-21 09:32:00,14.3,4.4,30.08,SSW,202,0.0,0.0,64,0.00,,,0.00,WUHU21636XXSP,2013-03-21 14:32:00,
2013-03-21 09:37:00,14.8,4.9,30.08,SW,225,0.0,0.0,64,0.00,,,0.00,WUHU21636XXSP,2013-03-21 14:37:00,
2013-03-21 09:42:00,16.2,5.5,30.08,South,180,0.0,0.0,62,0.00,,,0.00,WUHU21636XXSP,2013-03-21 14:42:00,
2013-03-21 09:47:00,16.9,5.8,30.08,South,180,0.0,0.0,61,0.00,,,0.00,WUHU21636XXSP,2013-03-21 14:47:00,
2013-03-21 09:52:00,17.5,5.7,30.08,South,180,0.0,0.0,59,0.00,,,0.00,WUHU21636XXSP,2013-03-21 14:52:00,
2013-03-21 09:57:00,18.6,5.9,30.07,South,180,0.0,0.0,57,0.00,,,0.00,WUHU21636XXSP,2013-03-21 14:57:00,
2013-03-21 10:02:00,19.0,5.5,30.07,West,270,0.0,0.0,55,0.00,,,0.00,WUHU21636XXSP,2013-03-21 15:02:00,
2013-03-21 10:07:00,19.0,5.1,30.07,West,270,0.0,0.0,54,0.00,,,0.00,WUHU21636XXSP,2013-03-21 15:07:00,
2013-03-21 10:12:00,19.4,5.5,30.07,North,0,0.0,0.0,54,0.00,,,0.00,WUHU21636XXSP,2013-03-21 15:12:00,
2013-03-21 10:17:00,19.5,4.7,30.07,North,0,0.0,0.0,52,0.00,,,0.00,WUHU21636XXSP,2013-03-21 15:17:00,
2013-03-21 10:22:00,20.0,5.5,30.07,ENE,67,0.0,0.0,53,0.00,,,0.00,WUHU21636XXSP,2013-03-21 15:22:00,
2013-03-21 10:27:00,20.7,4.9,30.07,NNW,337,0.0,0.0,50,0.00,,,0.00,WUHU21636XXSP,2013-03-21 15:27:00,
2013-03-21 10:32:00,21.1,5.3,30.07,SSW,202,0.0,0.0,50,0.00,,,0.00,WUHU21636XXSP,2013-03-21 15:32:00,
2013-03-21 10:37:00,21.8,6.0,30.07,SSW,202,0.0,0.0,50,0.00,,,0.00,WUHU21636XXSP,2013-03-21 15:37:00,
2013-03-21 10:42:00,22.3,5.4,30.07,WSW,247,0.0,0.0,48,0.00,,,0.00,WUHU21636XXSP,2013-03-21 15:42:00,
2013-03-21 10:47:00,22.6,5.3,30.07,NNE,22,0.0,0.0,47,0.00,,,0.00,WUHU21636XXSP,2013-03-21 15:47:00,
2013-03-21 10:52:00,23.5,6.1,30.07,WNW,292,0.0,0.0,47,0.00,,,0.00,WUHU21636XXSP,2013-03-21 15:52:00,
2013-03-21 10:57:00,23.9,6.0,30.07,NW,315,0.0,0.0,46,0.00,,,0.00,WUHU21636XXSP,2013-03-21 15:57:00,
2013-03-21 11:02:00,24.5,6.0,30.07,NNE,22,0.0,0.0,45,0.00,,,0.00,WUHU21636XXSP,2013-03-21 16:02:00,
2013-03-21 11:07:00,25.1,6.6,30.07,NNE,22,0.0,0.0,45,0.00,,,0.00,WUHU21636XXSP,2013-03-21 16:07:00,
2013-03-21 11:12:00,24.7,6.2,30.07,East,90,0.0,0.0,45,0.00,,,0.00,WUHU21636XXSP,2013-03-21 16:12:00,
2013-03-21 11:17:00,24.9,5.9,30.07,NE,45,0.0,0.0,44,0.00,,,0.00,WUHU21636XXSP,2013-03-21 16:17:00,
2013-03-21 11:22:00,25.4,4.8,30.07,NNE,22,0.0,0.0,41,0.00,,,0.00,WUHU21636XXSP,2013-03-21 16:22:00,
2013-03-21 11:27:00,25.6,6.0,30.07,NE,45,0.0,0.0,43,0.00,,,0.00,WUHU21636XXSP,2013-03-21 16:27:00,
2013-03-21 11:32:00,26.1,6.5,30.06,ENE,67,0.0,0.0,43,0.00,,,0.00,WUHU21636XXSP,2013-03-21 16:32:00,
2013-03-21 11:37:00,27.1,6.8,30.06,NE,45,0.0,0.0,42,0.00,,,0.00,WUHU21636XXSP,2013-03-21 16:37:00,
2013-03-21 11:42:00,27.7,6.3,30.06,NNE,22,0.0,0.0,40,0.00,,,0.00,WUHU21636XXSP,2013-03-21 16:42:00,
2013-03-21 11:47:00,27.5,7.2,30.06,ESE,112,0.0,0.0,42,0.00,,,0.00,WUHU21636XXSP,2013-03-21 16:47:00,
2013-03-21 11:53:00,28.5,7.5,30.06,SE,135,0.0,0.0,41,0.00,,,0.00,WUHU21636XXSP,2013-03-21 16:53:00,
2013-03-21 11:58:00,28.2,7.4,30.06,NNE,22,0.0,0.0,41,0.00,,,0.00,WUHU21636XXSP,2013-03-21 16:58:00,
2013-03-21 12:03:00,28.7,7.7,30.06,SSW,202,0.0,0.0,41,0.00,,,0.00,WUHU21636XXSP,2013-03-21 17:03:00,
2013-03-21 12:08:00,28.7,7.7,30.06,NNE,22,0.0,0.0,41,0.00,,,0.00,WUHU21636XXSP,2013-03-21 17:08:00,
2013-03-21 12:13:00,29.6,9.1,30.06,South,180,0.0,0.0,42,0.00,,,0.00,WUHU21636XXSP,2013-03-21 17:13:00,
2013-03-21 12:18:00,31.1,9.4,30.06,ENE,67,0.0,0.0,40,0.00,,,0.00,WUHU21636XXSP,2013-03-21 17:18:00,
2013-03-21 12:23:00,29.6,8.0,30.06,NE,45,0.0,0.0,40,0.00,,,0.00,WUHU21636XXSP,2013-03-21 17:23:00,
2013-03-21 12:28:00,29.2,7.7,30.06,West,270,0.0,0.0,40,0.00,,,0.00,WUHU21636XXSP,2013-03-21 17:28:00,
2013-03-21 12:33:00,28.9,7.4,30.06,SSW,202,0.0,0.0,40,0.00,,,0.00,WUHU21636XXSP,2013-03-21 17:33:00,
2013-03-21 12:38:00,29.9,7.7,30.06,West,270,0.0,0.0,39,0.00,,,0.00,WUHU21636XXSP,2013-03-21 17:38:00,
2013-03-21 12:43:00,29.2,7.7,30.06,SW,225,0.0,0.0,40,0.00,,,0.00,WUHU21636XXSP,2013-03-21 17:43:00,
2013-03-21 12:48:00,29.9,8.3,30.05,SW,225,0.0,0.0,40,0.00,,,0.00,WUHU21636XXSP,2013-03-21 17:48:00,
2013-03-21 12:53:00,30.8,8.5,30.06,WSW,247,0.0,0.0,39,0.00,,,0.00,WUHU21636XXSP,2013-03-21 17:53:00,
2013-03-21 12:58:00,31.8,10.0,30.05,SSW,202,0.0,0.0,40,0.00,,,0.00,WUHU21636XXSP,2013-03-21 17:58:00,
2013-03-21 13:03:00,31.8,8.3,30.05,NNE,22,0.0,0.0,37,0.00,,,0.00,WUHU21636XXSP,2013-03-21 18:03:00,
2013-03-21 13:08:00,31.5,8.6,30.05,SW,225,0.0,0.0,38,0.00,,,0.00,WUHU21636XXSP,2013-03-21 18:08:00,
2013-03-21 13:13:00,31.8,10.0,30.05,West,270,0.0,0.0,40,0.00,,,0.00,WUHU21636XXSP,2013-03-21 18:13:00,
2013-03-21 13:18:00,31.5,8.0,30.05,West,270,0.0,0.0,37,0.00,,,0.00,WUHU21636XXSP,2013-03-21 18:18:00,
2013-03-21 13:23:00,31.8,9.4,30.05,WNW,292,0.0,0.0,39,0.00,,,0.00,WUHU21636XXSP,2013-03-21 18:23:00,
2013-03-21 13:28:00,32.4,10.0,30.05,WNW,292,0.0,0.0,39,0.00,,,0.00,WUHU21636XXSP,2013-03-21 18:28:00,
2013-03-21 13:33:00,32.7,10.2,30.05,South,180,0.0,0.0,39,0.00,,,0.00,WUHU21636XXSP,2013-03-21 18:33:00,
2013-03-21 13:38:00,32.4,9.4,30.05,WSW,247,0.0,0.0,38,0.00,,,0.00,WUHU21636XXSP,2013-03-21 18:38:00,
2013-03-21 13:43:00,33.0,10.5,30.05,West,270,0.0,0.0,39,0.00,,,0.00,WUHU21636XXSP,2013-03-21 18:43:00,
2013-03-21 13:48:00,33.0,9.3,30.05,West,270,0.0,0.0,37,0.00,,,0.00,WUHU21636XXSP,2013-03-21 18:48:00,
2013-03-21 13:53:00,33.4,9.7,30.05,West,270,0.0,0.0,37,0.00,,,0.00,WUHU21636XXSP,2013-03-21 18:53:00,
2013-03-21 13:58:00,31.8,8.3,30.05,NW,315,0.0,0.0,37,0.00,,,0.00,WUHU21636XXSP,2013-03-21 18:58:00,
2013-03-21 14:03:00,32.4,9.4,30.05,NE,45,0.0,0.0,38,0.00,,,0.00,WUHU21636XXSP,2013-03-21 19:03:00,
2013-03-21 14:08:00,33.0,9.9,30.04,West,270,0.0,0.0,38,0.00,,,0.00,WUHU21636XXSP,2013-03-21 19:08:00,
2013-03-21 14:13:00,33.2,10.7,30.04,East,90,0.0,0.0,39,0.00,,,0.00,WUHU21636XXSP,2013-03-21 19:13:00,
2013-03-21 14:18:00,33.9,10.1,30.04,WNW,292,0.0,0.0,37,0.00,,,0.00,WUHU21636XXSP,2013-03-21 19:18:00,
2013-03-21 14:23:00,33.0,9.3,30.04,WSW,247,0.0,0.0,37,0.00,,,0.00,WUHU21636XXSP,2013-03-21 19:23:00,
2013-03-21 14:28:00,33.4,9.7,30.04,SSE,157,0.0,0.0,37,0.00,,,0.00,WUHU21636XXSP,2013-03-21 19:28:00,
2013-03-21 14:33:00,34.7,10.2,30.03,NNW,337,0.0,0.0,36,0.00,,,0.00,WUHU21636XXSP,2013-03-21 19:33:00,
2013-03-21 14:38:00,33.7,9.3,30.04,NW,315,0.0,0.0,36,0.00,,,0.00,WUHU21636XXSP,2013-03-21 19:38:00,
2013-03-21 14:43:00,33.6,9.2,30.03,ENE,67,0.0,0.0,36,0.00,,,0.00,WUHU21636XXSP,2013-03-21 19:43:00,
2013-03-21 14:48:00,33.4,10.3,30.03,ENE,67,0.0,0.0,38,0.00,,,0.00,WUHU21636XXSP,2013-03-21 19:48:00,
2013-03-21 14:53:00,34.3,9.9,30.03,West,270,0.0,0.0,36,0.00,,,0.00,WUHU21636XXSP,2013-03-21 19:53:00,
2013-03-21 14:58:00,33.2,9.5,30.03,WNW,292,0.0,0.0,37,0.00,,,0.00,WUHU21636XXSP,2013-03-21 19:58:00,
2013-03-21 15:03:00,34.5,10.1,30.02,NNE,22,0.0,0.0,36,0.00,,,0.00,WUHU21636XXSP,2013-03-21 20:03:00,
2013-03-21 15:08:00,33.4,9.1,30.02,WSW,247,0.0,0.0,36,0.00,,,0.00,WUHU21636XXSP,2013-03-21 20:08:00,
2013-03-21 15:13:00,33.2,9.5,30.03,WSW,247,0.0,0.0,37,0.00,,,0.00,WUHU21636XXSP,2013-03-21 20:13:00,
2013-03-21 15:18:00,34.1,9.7,30.02,SSW,202,0.0,0.0,36,0.00,,,0.00,WUHU21636XXSP,2013-03-21 20:18:00,
2013-03-21 15:23:00,35.6,11.6,30.02,South,180,0.0,0.0,37,0.00,,,0.00,WUHU21636XXSP,2013-03-21 20:23:00,
2013-03-21 15:28:00,36.4,11.1,30.02,SSW,202,0.0,0.0,35,0.00,,,0.00,WUHU21636XXSP,2013-03-21 20:28:00,
2013-03-21 15:33:00,36.8,11.4,30.02,WSW,247,0.0,0.0,35,0.00,,,0.00,WUHU21636XXSP,2013-03-21 20:33:00,
2013-03-21 15:38:00,36.8,11.4,30.02,WSW,247,0.0,0.0,35,0.00,,,0.00,WUHU21636XXSP,2013-03-21 20:38:00,
2013-03-21 15:43:00,35.3,10.1,30.02,West,270,0.0,0.0,35,0.00,,,0.00,WUHU21636XXSP,2013-03-21 20:43:00,
2013-03-21 15:48:00,35.3,11.4,30.02,WSW,247,0.0,0.0,37,0.00,,,0.00,WUHU21636XXSP,2013-03-21 20:48:00,
2013-03-21 15:53:00,36.0,12.0,30.02,WSW,247,0.0,0.0,37,0.00,,,0.00,WUHU21636XXSP,2013-03-21 20:53:00,
2013-03-21 15:58:00,36.4,9.8,30.02,WNW,292,0.0,0.0,33,0.00,,,0.00,WUHU21636XXSP,2013-03-21 20:58:00,
2013-03-21 16:03:00,36.2,12.2,30.02,SE,135,0.0,0.0,37,0.00,,,0.00,WUHU21636XXSP,2013-03-21 21:03:00,
2013-03-21 16:08:00,36.4,10.5,30.02,NW,315,0.0,0.0,34,0.00,,,0.00,WUHU21636XXSP,2013-03-21 21:08:00,
2013-03-21 16:13:00,35.3,10.7,30.02,North,0,0.0,0.0,36,0.00,,,0.00,WUHU21636XXSP,2013-03-21 21:13:00,
2013-03-21 16:18:00,35.6,11.0,30.02,ENE,67,0.0,0.0,36,0.00,,,0.00,WUHU21636XXSP,2013-03-21 21:18:00,
2013-03-21 16:23:00,35.3,10.1,30.01,NW,315,0.0,0.0,35,0.00,,,0.00,WUHU21636XXSP,2013-03-21 21:23:00,
2013-03-21 16:28:00,36.2,11.6,30.01,SW,225,0.0,0.0,36,0.00,,,0.00,WUHU21636XXSP,2013-03-21 21:28:00,
2013-03-21 16:33:00,36.2,10.3,30.01,NW,315,0.0,0.0,34,0.00,,,0.00,WUHU21636XXSP,2013-03-21 21:33:00,
2013-03-21 16:38:00,35.6,11.6,30.01,NNW,337,0.0,0.0,37,0.00,,,0.00,WUHU21636XXSP,2013-03-21 21:38:00,
2013-03-21 16:43:00,36.5,12.5,30.01,WNW,292,0.0,0.0,37,0.00,,,0.00,WUHU21636XXSP,2013-03-21 21:43:00,
2013-03-21 16:48:00,36.5,11.2,30.01,WSW,247,0.0,0.0,35,0.00,,,0.00,WUHU21636XXSP,2013-03-21 21:48:00,
2013-03-21 16:53:00,36.2,11.6,30.01,ENE,67,0.0,0.0,36,0.00,,,0.00,WUHU21636XXSP,2013-03-21 21:53:00,
2013-03-21 16:58:00,36.2,12.2,30.01,South,180,0.0,0.0,37,0.00,,,0.00,WUHU21636XXSP,2013-03-21 21:58:00,
2013-03-21 17:03:00,36.4,11.1,30.01,West,270,0.0,0.0,35,0.00,,,0.00,WUHU21636XXSP,2013-03-21 22:03:00,
2013-03-21 17:08:00,35.6,11.0,30.00,SW,225,0.0,0.0,36,0.00,,,0.00,WUHU21636XXSP,2013-03-21 22:08:00,
2013-03-21 17:13:00,35.8,11.2,30.00,South,180,0.0,0.0,36,0.00,,,0.00,WUHU21636XXSP,2013-03-21 22:13:00,
2013-03-21 17:18:00,35.6,10.4,30.00,WSW,247,0.0,0.0,35,0.00,,,0.00,WUHU21636XXSP,2013-03-21 22:18:00,
2013-03-21 17:23:00,34.9,11.6,30.00,West,270,0.0,0.0,38,0.00,,,0.00,WUHU21636XXSP,2013-03-21 22:23:00,
2013-03-21 17:28:00,34.5,10.7,30.00,North,0,0.0,0.0,37,0.00,,,0.00,WUHU21636XXSP,2013-03-21 22:28:00,
2013-03-21 17:33:00,33.4,10.9,30.00,South,180,0.0,0.0,39,0.00,,,0.00,WUHU21636XXSP,2013-03-21 22:33:00,
2013-03-21 17:39:00,33.7,10.6,30.00,ENE,67,0.0,0.0,38,0.00,,,0.00,WUHU21636XXSP,2013-03-21 22:39:00,
2013-03-21 17:44:00,32.0,9.0,30.00,WNW,292,0.0,0.0,38,0.00,,,0.00,WUHU21636XXSP,2013-03-21 22:44:00,
2013-03-21 17:49:00,30.9,8.6,30.00,WNW,292,0.0,0.0,39,0.00,,,0.00,WUHU21636XXSP,2013-03-21 22:49:00,
2013-03-21 17:54:00,30.9,9.7,30.00,SW,225,0.0,0.0,41,0.00,,,0.00,WUHU21636XXSP,2013-03-21 22:54:00,
2013-03-21 17:59:00,29.9,7.7,30.00,WSW,247,0.0,0.0,39,0.00,,,0.00,WUHU21636XXSP,2013-03-21 22:59:00,
2013-03-21 18:04:00,29.6,8.6,30.00,NNW,337,0.0,0.0,41,0.00,,,0.00,WUHU21636XXSP,2013-03-21 23:04:00,
2013-03-21 18:09:00,29.6,8.0,30.00,NW,315,0.0,0.0,40,0.00,,,0.00,WUHU21636XXSP,2013-03-21 23:09:00,
2013-03-21 18:14:00,28.7,7.7,30.00,NW,315,0.0,0.0,41,0.00,,,0.00,WUHU21636XXSP,2013-03-21 23:14:00,
2013-03-21 18:19:00,28.7,8.3,30.00,WSW,247,0.0,0.0,42,0.00,,,0.00,WUHU21636XXSP,2013-03-21 23:19:00,
2013-03-21 18:24:00,28.7,8.3,30.00,WSW,247,0.0,0.0,42,0.00,,,0.00,WUHU21636XXSP,2013-03-21 23:24:00,
2013-03-21 18:29:00,28.7,8.8,30.00,WSW,247,0.0,0.0,43,0.00,,,0.00,WUHU21636XXSP,2013-03-21 23:29:00,
2013-03-21 18:34:00,28.7,8.3,30.00,ESE,112,0.0,0.0,42,0.00,,,0.00,WUHU21636XXSP,2013-03-21 23:34:00,
2013-03-21 18:39:00,28.0,7.2,30.00,North,0,0.0,0.0,41,0.00,,,0.00,WUHU21636XXSP,2013-03-21 23:39:00,
2013-03-21 18:44:00,28.0,7.7,30.00,North,0,0.0,0.0,42,0.00,,,0.00,WUHU21636XXSP,2013-03-21 23:44:00,
2013-03-21 18:49:00,28.0,7.7,30.00,NW,315,0.0,0.0,42,0.00,,,0.00,WUHU21636XXSP,2013-03-21 23:49:00,
2013-03-21 18:54:00,27.7,8.0,30.00,NW,315,0.0,0.0,43,0.00,,,0.00,WUHU21636XXSP,2013-03-21 23:54:00,
2013-03-21 18:59:00,27.3,7.6,30.00,NE,45,0.0,0.0,43,0.00,,,0.00,WUHU21636XXSP,2013-03-21 23:59:00,
2013-03-21 19:04:00,27.1,8.4,30.00,NE,45,0.0,0.0,45,0.00,,,0.00,WUHU21636XXSP,2013-03-22 00:04:00,
2013-03-21 19:09:00,27.1,8.4,30.00,NE,45,0.0,0.0,45,0.00,,,0.00,WUHU21636XXSP,2013-03-22 00:09:00,
2013-03-21 19:14:00,27.3,8.6,30.01,NE,45,0.0,0.0,45,0.00,,,0.00,WUHU21636XXSP,2013-03-22 00:14:00,
2013-03-21 19:19:00,27.0,9.3,30.01,NNW,337,0.0,0.0,47,0.00,,,0.00,WUHU21636XXSP,2013-03-22 00:19:00,
2013-03-21 19:24:00,26.6,8.9,30.01,NNW,337,0.0,0.0,47,0.00,,,0.00,WUHU21636XXSP,2013-03-22 00:24:00,
2013-03-21 19:29:00,26.6,8.9,30.01,NNW,337,0.0,0.0,47,0.00,,,0.00,WUHU21636XXSP,2013-03-22 00:29:00,
2013-03-21 19:34:00,26.1,9.5,30.01,NNW,337,0.0,0.0,49,0.00,,,0.00,WUHU21636XXSP,2013-03-22 00:34:00,
2013-03-21 19:39:00,25.8,10.1,30.01,NNW,337,0.0,0.0,51,0.00,,,0.00,WUHU21636XXSP,2013-03-22 00:39:00,
2013-03-21 19:44:00,25.4,10.2,30.01,NNW,337,0.0,0.0,52,0.00,,,0.00,WUHU21636XXSP,2013-03-22 00:44:00,
2013-03-21 19:49:00,25.4,10.6,30.01,NNW,337,0.0,0.0,53,0.00,,,0.00,WUHU21636XXSP,2013-03-22 00:49:00,
2013-03-21 19:54:00,25.2,10.4,30.01,NNW,337,0.0,0.0,53,0.00,,,0.00,WUHU21636XXSP,2013-03-22 00:54:00,
2013-03-21 19:59:00,24.9,10.1,30.01,NNW,337,0.0,0.0,53,0.00,,,0.00,WUHU21636XXSP,2013-03-22 00:59:00,
2013-03-21 20:04:00,24.5,9.7,30.01,NNW,337,0.0,0.0,53,0.00,,,0.00,WUHU21636XXSP,2013-03-22 01:04:00,
2013-03-21 20:09:00,23.9,9.3,30.01,NNW,337,0.0,0.0,53,0.00,,,0.00,WUHU21636XXSP,2013-03-22 01:09:00,
2013-03-21 20:14:00,23.7,9.9,30.02,NNW,337,0.0,0.0,55,0.00,,,0.00,WUHU21636XXSP,2013-03-22 01:14:00,
2013-03-21 20:19:00,23.5,9.7,30.02,NNW,337,0.0,0.0,55,0.00,,,0.00,WUHU21636XXSP,2013-03-22 01:19:00,
2013-03-21 20:24:00,23.0,9.2,30.02,NNW,337,0.0,0.0,55,0.00,,,0.00,WUHU21636XXSP,2013-03-22 01:24:00,
2013-03-21 20:29:00,22.6,8.8,30.02,NNW,337,0.0,0.0,55,0.00,,,0.00,WUHU21636XXSP,2013-03-22 01:29:00,
2013-03-21 20:34:00,22.4,8.6,30.03,NNW,337,0.0,0.0,55,0.00,,,0.00,WUHU21636XXSP,2013-03-22 01:34:00,
2013-03-21 20:39:00,22.4,8.6,30.02,NNW,337,0.0,0.0,55,0.00,,,0.00,WUHU21636XXSP,2013-03-22 01:39:00,
2013-03-21 20:44:00,21.8,8.1,30.02,NNW,337,0.0,0.0,55,0.00,,,0.00,WUHU21636XXSP,2013-03-22 01:44:00,
2013-03-21 20:49:00,21.8,8.5,30.02,NNW,337,0.0,0.0,56,0.00,,,0.00,WUHU21636XXSP,2013-03-22 01:49:00,
2013-03-21 20:54:00,21.4,8.1,30.02,NNW,337,0.0,0.0,56,0.00,,,0.00,WUHU21636XXSP,2013-03-22 01:54:00,
2013-03-21 20:59:00,21.3,8.0,30.02,NNW,337,0.0,0.0,56,0.00,,,0.00,WUHU21636XXSP,2013-03-22 01:59:00,
2013-03-21 21:04:00,21.1,7.9,30.03,NNW,337,0.0,0.0,56,0.00,,,0.00,WUHU21636XXSP,2013-03-22 02:04:00,
2013-03-21 21:09:00,20.7,7.9,30.03,NNW,337,0.0,0.0,57,0.00,,,0.00,WUHU21636XXSP,2013-03-22 02:09:00,
2013-03-21 21:14:00,20.7,7.9,30.03,NNW,337,0.0,0.0,57,0.00,,,0.00,WUHU21636XXSP,2013-03-22 02:14:00,
2013-03-21 21:19:00,20.4,8.0,30.03,NNW,337,0.0,0.0,58,0.00,,,0.00,WUHU21636XXSP,2013-03-22 02:19:00,
2013-03-21 21:24:00,20.2,7.8,30.03,NNW,337,0.0,0.0,58,0.00,,,0.00,WUHU21636XXSP,2013-03-22 02:24:00,
2013-03-21 21:29:00,19.7,7.7,30.03,NNW,337,0.0,0.0,59,0.00,,,0.00,WUHU21636XXSP,2013-03-22 02:29:00,
2013-03-21 21:34:00,19.7,7.7,30.03,NNW,337,0.0,0.0,59,0.00,,,0.00,WUHU21636XXSP,2013-03-22 02:34:00,
2013-03-21 21:39:00,19.5,7.5,30.03,NNW,337,0.0,0.0,59,0.00,,,0.00,WUHU21636XXSP,2013-03-22 02:39:00,
2013-03-21 21:49:00,19.5,7.5,30.03,NNW,337,0.0,0.0,59,0.00,,,0.00,WUHU21636XXSP,2013-03-22 02:49:00,
2013-03-21 21:54:00,19.0,8.2,30.03,NNW,337,0.0,0.0,62,0.00,,,0.00,WUHU21636XXSP,2013-03-22 02:54:00,
2013-03-21 21:59:00,18.8,8.0,30.04,NNW,337,0.0,0.0,62,0.00,,,0.00,WUHU21636XXSP,2013-03-22 02:59:00,
2013-03-21 22:04:00,18.6,8.5,30.04,NNW,337,0.0,0.0,64,0.00,,,0.00,WUHU21636XXSP,2013-03-22 03:04:00,
2013-03-21 22:09:00,18.5,7.7,30.04,NNW,337,0.0,0.0,62,0.00,,,0.00,WUHU21636XXSP,2013-03-22 03:09:00,
2013-03-21 22:14:00,18.3,7.8,30.04,NNW,337,0.0,0.0,63,0.00,,,0.00,WUHU21636XXSP,2013-03-22 03:14:00,
2013-03-21 22:19:00,17.9,7.4,30.04,NNW,337,0.0,0.0,63,0.00,,,0.00,WUHU21636XXSP,2013-03-22 03:19:00,
2013-03-21 22:24:00,17.9,7.8,30.05,NNW,337,0.0,0.0,64,0.00,,,0.00,WUHU21636XXSP,2013-03-22 03:24:00,
2013-03-21 22:29:00,17.6,7.6,30.04,NNW,337,0.0,0.0,64,0.00,,,0.00,WUHU21636XXSP,2013-03-22 03:29:00,
2013-03-21 22:34:00,17.5,7.1,30.04,NNW,337,0.0,0.0,63,0.00,,,0.00,WUHU21636XXSP,2013-03-22 03:34:00,
2013-03-21 22:39:00,17.5,7.1,30.04,NNW,337,0.0,0.0,63,0.00,,,0.00,WUHU21636XXSP,2013-03-22 03:39:00,
2013-03-21 22:44:00,17.1,7.1,30.05,NNW,337,0.0,0.0,64,0.00,,,0.00,WUHU21636XXSP,2013-03-22 03:44:00,
2013-03-21 22:49:00,16.9,6.9,30.05,NNW,337,0.0,0.0,64,0.00,,,0.00,WUHU21636XXSP,2013-03-22 03:49:00,
2013-03-21 22:54:00,16.9,6.5,30.05,NNW,337,0.0,0.0,63,0.00,,,0.00,WUHU21636XXSP,2013-03-22 03:54:00,
2013-03-21 22:59:00,16.7,6.3,30.05,NNW,337,0.0,0.0,63,0.00,,,0.00,WUHU21636XXSP,2013-03-22 03:59:00,
2013-03-21 23:00:00,16.7,6.3,30.05,NNW,337,0.0,0.0,63,0.00,,,0.00,WUHU21636XXSP,2013-03-22 04:00:00,
2013-03-21 23:05:00,16.4,6.4,30.04,NNW,337,0.0,0.0,64,0.00,,,0.00,WUHU21636XXSP,2013-03-22 04:05:00,
2013-03-21 23:10:00,16.4,6.4,30.04,NNW,337,0.0,0.0,64,0.00,,,0.00,WUHU21636XXSP,2013-03-22 04:10:00,
2013-03-21 23:15:00,16.2,6.2,30.04,NNW,337,0.0,0.0,64,0.00,,,0.00,WUHU21636XXSP,2013-03-22 04:15:00,
2013-03-21 23:20:00,16.0,6.3,30.04,NNW,337,0.0,0.0,65,0.00,,,0.00,WUHU21636XXSP,2013-03-22 04:20:00,
2013-03-21 23:25:00,16.0,6.3,30.05,NNW,337,0.0,0.0,65,0.00,,,0.00,WUHU21636XXSP,2013-03-22 04:25:00,
2013-03-21 23:30:00,15.8,6.1,30.05,NNW,337,0.0,0.0,65,0.00,,,0.00,WUHU21636XXSP,2013-03-22 04:30:00,
2013-03-21 23:35:00,15.6,6.0,30.05,NNW,337,0.0,0.0,65,0.00,,,0.00,WUHU21636XXSP,2013-03-22 04:35:00,
2013-03-21 23:40:00,15.4,5.8,30.05,NNW,337,0.0,0.0,65,0.00,,,0.00,WUHU21636XXSP,2013-03-22 04:40:00,
2013-03-21 23:45:00,15.4,5.8,30.05,NNW,337,0.0,0.0,65,0.00,,,0.00,WUHU21636XXSP,2013-03-22 04:45:00,
2013-03-21 23:50:00,15.0,5.4,30.05,NNW,337,0.0,0.0,65,0.00,,,0.00,WUHU21636XXSP,2013-03-22 04:50:00,
2013-03-21 23:56:00,15.0,5.4,30.05,NNW,337,0.0,0.0,65,0.00,,,0.00,WUHU21636XXSP,2013-03-22 04:56:00,